Time;durP1;ratioP1;P1;durP2;ratioP2;P2;SDS_P1;SDS_P2;PMS_P1;PMS_P2;Temp;Humidity;BMP_temperature;BMP_pressure;BME280_temperature;BME280_humidity;BME280_pressure;Samples;Min_cycle;Max_cycle;Signal;HPM_P1;HPM_P2
2022/12/08 00:02:22;;;;;;;33.00;8.90;;;;;;;1.64;92.87;99721.71;102860;1285;25335;-58
2022/12/08 00:10:33;;;;;;;20.10;5.40;;;;;;;1.63;92.90;99728.05;102698;1291;22479;-59
2022/12/08 00:13:04;;;;;;;24.90;7.00;;;;;;;1.63;92.80;99730.39;102892;1285;25494;-59
2022/12/08 00:15:37;;;;;;;24.00;6.30;;;;;;;1.64;92.78;99728.08;102848;1306;22560;-58
2022/12/08 00:18:10;;;;;;;17.80;5.90;;;;;;;1.66;92.86;99729.44;102873;1285;23039;-58
2022/12/08 00:20:41;;;;;;;20.90;5.80;;;;;;;1.69;92.82;99729.09;102920;1305;24778;-59
2022/12/08 00:23:12;;;;;;;22.90;7.10;;;;;;;1.70;92.80;99724.72;102925;1285;22481;-59
2022/12/08 00:25:44;;;;;;;19.40;6.30;;;;;;;1.72;92.77;99721.92;102944;1306;25300;-57
2022/12/08 00:28:15;;;;;;;24.00;6.80;;;;;;;1.75;92.78;99721.14;103031;1284;22470;-59
2022/12/08 00:30:47;;;;;;;20.00;6.10;;;;;;;1.77;92.83;99717.38;102933;1301;23320;-59
2022/12/08 00:33:18;;;;;;;23.40;6.50;;;;;;;1.80;92.77;99718.73;102901;1285;22472;-61
2022/12/08 00:35:49;;;;;;;26.00;6.90;;;;;;;1.82;92.73;99716.48;102899;1306;22608;-57
2022/12/08 00:38:21;;;;;;;20.70;6.60;;;;;;;1.83;92.64;99715.65;102770;1306;22612;-59
2022/12/08 00:40:55;;;;;;;21.70;6.90;;;;;;;1.84;92.60;99712.95;102815;1280;25234;-58
2022/12/08 00:43:27;;;;;;;21.60;6.70;;;;;;;1.87;92.63;99719.33;102873;1285;25357;-59
2022/12/08 00:45:58;;;;;;;23.70;6.70;;;;;;;1.89;92.66;99720.39;102837;1306;24249;-60
2022/12/08 00:48:30;;;;;;;22.30;6.20;;;;;;;1.89;92.59;99718.96;102897;1281;23921;-59
2022/12/08 00:51:01;;;;;;;23.70;7.10;;;;;;;1.89;92.53;99724.62;102729;1292;275460;-61
2022/12/08 00:53:33;;;;;;;18.40;5.50;;;;;;;1.90;92.52;99729.56;102932;1288;25317;-58
2022/12/08 00:56:05;;;;;;;18.00;5.00;;;;;;;1.89;92.46;99727.13;102803;1281;22583;-57
2022/12/08 00:58:36;;;;;;;20.40;5.20;;;;;;;1.89;92.40;99731.45;102825;1281;25835;-57
2022/12/08 01:01:14;;;;;;;17.90;5.00;;;;;;;1.89;92.44;99730.67;102826;1284;22454;-58
2022/12/08 01:03:46;;;;;;;23.10;5.50;;;;;;;1.89;92.48;99728.63;102938;1306;22472;-59
2022/12/08 01:06:18;;;;;;;23.50;6.00;;;;;;;1.89;92.46;99729.82;102970;1278;22468;-61
2022/12/08 01:08:50;;;;;;;22.60;7.40;;;;;;;1.88;92.48;99734.86;102836;1306;25272;-58
2022/12/08 01:11:21;;;;;;;23.50;6.50;;;;;;;1.89;92.52;99742.16;102793;1306;25332;-60
2022/12/08 01:13:54;;;;;;;30.90;7.70;;;;;;;1.90;92.64;99741.98;102772;1306;22469;-57
2022/12/08 01:16:27;;;;;;;26.90;9.00;;;;;;;1.91;92.61;99742.58;102774;1285;22528;-59
2022/12/08 01:18:59;;;;;;;26.30;8.20;;;;;;;1.93;92.67;99740.64;102827;1306;25325;-56
2022/12/08 01:21:31;;;;;;;19.50;6.20;;;;;;;1.94;92.64;99732.45;102759;1285;24690;-59
2022/12/08 01:24:03;;;;;;;18.50;6.10;;;;;;;1.95;92.66;99730.44;102802;1306;22459;-58
2022/12/08 01:26:35;;;;;;;21.70;6.20;;;;;;;1.96;92.56;99734.28;103150;1285;22735;-60
2022/12/08 01:29:07;;;;;;;19.20;6.20;;;;;;;1.97;92.72;99733.08;102814;1278;25298;-58
2022/12/08 01:31:39;;;;;;;23.10;8.00;;;;;;;1.99;92.63;99728.60;102899;1281;22468;-59
2022/12/08 01:34:11;;;;;;;23.30;8.00;;;;;;;1.99;92.51;99727.50;102848;1281;24317;-59
2022/12/08 01:36:43;;;;;;;24.20;7.00;;;;;;;1.99;92.50;99724.98;103215;1281;25502;-58
2022/12/08 01:39:18;;;;;;;24.50;7.40;;;;;;;1.98;92.37;99723.66;102986;1284;23118;-58
2022/12/08 01:41:49;;;;;;;23.90;8.10;;;;;;;1.97;92.19;99719.05;102957;1306;22467;-59
2022/12/08 01:44:55;;;;;;;22.80;7.80;;;;;;;1.97;92.21;99715.36;102793;1280;22866;-59
2022/12/08 01:47:33;;;;;;;19.40;5.30;;;;;;;1.99;92.34;99713.91;103146;1275;22482;-58
2022/12/08 01:50:06;;;;;;;21.30;6.50;;;;;;;2.00;92.30;99719.52;102890;1285;22933;-59
2022/12/08 01:52:41;;;;;;;22.60;7.00;;;;;;;2.01;92.22;99716.34;102804;1301;24222;-57
2022/12/08 01:55:18;;;;;;;21.30;5.90;;;;;;;2.01;92.20;99719.27;102792;1278;22725;-59
2022/12/08 01:57:53;;;;;;;21.30;6.70;;;;;;;2.00;92.06;99720.08;102932;1281;22481;-58
2022/12/08 02:00:25;;;;;;;22.60;6.70;;;;;;;1.99;91.99;99717.27;102949;1291;22533;-58
2022/12/08 02:03:02;;;;;;;22.80;7.40;;;;;;;1.99;91.95;99723.89;102916;1284;23147;-59
2022/12/08 02:05:37;;;;;;;19.10;6.60;;;;;;;1.98;91.92;99716.84;102948;1296;24407;-57
2022/12/08 02:08:11;;;;;;;19.80;6.40;;;;;;;1.96;91.88;99710.53;102847;1285;23760;-61
2022/12/08 02:10:43;;;;;;;18.70;5.80;;;;;;;1.95;92.01;99714.14;102816;1285;22512;-57
2022/12/08 02:13:17;;;;;;;16.00;4.70;;;;;;;1.97;92.06;99711.68;102878;1282;22478;-59
2022/12/08 02:15:59;;;;;;;20.30;6.10;;;;;;;1.98;92.13;99711.33;102826;1281;22507;-60
2022/12/08 02:18:42;;;;;;;18.80;6.10;;;;;;;1.97;92.03;99713.08;102829;1284;25356;-59
2022/12/08 02:21:19;;;;;;;19.00;6.60;;;;;;;1.97;91.98;99714.80;102870;1284;26575;-60
2022/12/08 02:24:00;;;;;;;20.80;5.90;;;;;;;1.97;92.06;99714.35;102953;1306;22521;-59
2022/12/08 02:26:59;;;;;;;18.70;5.20;;;;;;;1.97;92.03;99714.73;103025;1278;22553;-58
2022/12/08 02:29:59;;;;;;;19.60;6.20;;;;;;;1.97;92.01;99715.91;103180;1291;26533;-59
2022/12/08 02:32:56;;;;;;;17.20;5.70;;;;;;;1.99;92.07;99717.84;103257;1285;22485;-58
2022/12/08 02:35:36;;;;;;;15.60;5.90;;;;;;;1.98;91.89;99712.98;103209;1281;22466;-61
2022/12/08 02:38:16;;;;;;;21.60;5.80;;;;;;;1.99;91.86;99715.61;102857;1278;22495;-59
2022/12/08 02:40:55;;;;;;;15.30;4.80;;;;;;;2.01;91.98;99710.85;102918;1284;22475;-60
2022/12/08 02:43:35;;;;;;;17.60;4.70;;;;;;;2.05;92.05;99712.95;102733;1284;26522;-59
2022/12/08 02:46:15;;;;;;;18.60;4.80;;;;;;;2.06;92.05;99712.84;102823;1307;22461;-57
2022/12/08 02:48:46;;;;;;;;;;;;;;;2.09;92.05;99718.35;102884;1292;22444;-58
2022/12/08 02:51:17;;;;;;;14.90;4.20;;;;;;;2.10;92.10;99713.06;102818;1281;22497;-59
2022/12/08 02:53:50;;;;;;;18.70;5.30;;;;;;;2.10;92.11;99710.84;102859;1294;22640;-60
2022/12/08 02:56:39;;;;;;;19.10;5.30;;;;;;;2.12;92.25;99710.88;102845;1281;22550;-57
2022/12/08 02:59:25;;;;;;;16.50;4.90;;;;;;;2.15;92.25;99711.19;102865;1284;22475;-59
2022/12/08 03:02:29;;;;;;;19.40;5.90;;;;;;;2.16;92.19;99707.30;102976;1288;22488;-60
2022/12/08 03:05:09;;;;;;;22.20;6.80;;;;;;;2.18;92.24;99706.31;102989;1285;22460;-61
2022/12/08 03:07:47;;;;;;;20.90;6.40;;;;;;;2.17;92.14;99704.65;102957;1306;23361;-60
2022/12/08 03:10:27;;;;;;;21.20;7.00;;;;;;;2.19;92.13;99701.09;102817;1288;24288;-59
2022/12/08 03:13:03;;;;;;;18.90;5.60;;;;;;;2.17;91.96;99704.13;102894;1283;24347;-58
2022/12/08 03:15:38;;;;;;;24.20;6.90;;;;;;;2.16;91.93;99703.52;102857;1291;22490;-57
2022/12/08 03:18:15;;;;;;;20.40;6.40;;;;;;;2.16;92.01;99705.42;102814;1282;24494;-60
2022/12/08 03:20:48;;;;;;;23.70;6.90;;;;;;;2.15;91.85;99700.10;102870;1288;25375;-59
2022/12/08 03:23:22;;;;;;;17.40;5.40;;;;;;;2.14;91.91;99698.85;102885;1307;24402;-61
2022/12/08 03:26:01;;;;;;;21.40;6.80;;;;;;;2.13;91.99;99693.52;102887;1291;24330;-59
2022/12/08 03:28:33;;;;;;;21.70;6.80;;;;;;;2.14;91.97;99693.41;102906;1287;22598;-59
2022/12/08 03:31:09;;;;;;;24.00;6.10;;;;;;;2.15;91.86;99690.57;102933;1306;25340;-58
2022/12/08 03:33:44;;;;;;;22.40;7.50;;;;;;;2.15;91.92;99688.83;102835;1281;22478;-59
2022/12/08 03:36:15;;;;;;;24.00;7.80;;;;;;;2.14;91.94;99690.52;102857;1306;24325;-59
2022/12/08 03:38:51;;;;;;;18.70;6.50;;;;;;;2.14;91.89;99693.11;102802;1283;22477;-59
2022/12/08 03:41:23;;;;;;;23.80;7.20;;;;;;;2.15;91.87;99698.77;102794;1306;25294;-56
2022/12/08 03:43:57;;;;;;;22.70;6.90;;;;;;;2.15;91.79;99700.33;102843;1281;22475;-58
2022/12/08 03:46:30;;;;;;;20.80;6.90;;;;;;;2.13;91.55;99696.78;102793;1290;22497;-58
2022/12/08 03:49:01;;;;;;;22.50;6.90;;;;;;;2.10;91.68;99698.41;102928;1304;22594;-59
2022/12/08 03:51:33;;;;;;;20.80;6.70;;;;;;;2.08;91.76;99698.79;102795;1288;22502;-58
2022/12/08 03:54:04;;;;;;;17.60;6.50;;;;;;;2.08;91.84;99698.79;102875;1287;22527;-59
2022/12/08 03:56:38;;;;;;;23.10;7.30;;;;;;;2.07;91.82;99704.95;102788;1309;22714;-60
2022/12/08 03:59:10;;;;;;;23.60;8.80;;;;;;;2.06;91.83;99699.16;102812;1288;24297;-59
2022/12/08 04:01:41;;;;;;;20.30;7.80;;;;;;;2.06;92.01;99698.60;102800;1283;25337;-58
2022/12/08 04:04:13;;;;;;;21.70;7.80;;;;;;;2.08;91.93;99701.39;102825;1285;22653;-59
2022/12/08 04:06:46;;;;;;;23.20;7.80;;;;;;;2.08;91.96;99696.34;102914;1288;22482;-59
2022/12/08 04:09:18;;;;;;;21.30;7.10;;;;;;;2.09;91.95;99695.44;102840;1289;24304;-59
2022/12/08 04:11:49;;;;;;;21.00;5.80;;;;;;;2.11;92.05;99701.70;102854;1299;22649;-60
2022/12/08 04:14:24;;;;;;;17.40;6.60;;;;;;;2.09;92.03;99699.33;102944;1301;24441;-56
2022/12/08 04:16:55;;;;;;;21.80;8.30;;;;;;;2.07;92.03;99696.15;102794;1281;24525;-59
2022/12/08 04:19:27;;;;;;;23.50;9.90;;;;;;;2.05;92.25;99688.25;102886;1304;22472;-61
2022/12/08 04:21:58;;;;;;;26.10;10.80;;;;;;;2.06;92.35;99692.88;102793;1285;24465;-60
2022/12/08 04:24:29;;;;;;;25.40;10.30;;;;;;;2.06;92.45;99691.06;102767;1288;22591;-59
2022/12/08 04:27:01;;;;;;;24.60;11.00;;;;;;;2.05;92.50;99692.02;102859;1306;25263;-58
2022/12/08 04:29:32;;;;;;;21.90;8.80;;;;;;;2.07;92.54;99685.77;102958;1290;26791;-61
2022/12/08 04:32:04;;;;;;;19.80;7.20;;;;;;;2.08;92.63;99680.77;102919;1283;26560;-59
2022/12/08 04:34:35;;;;;;;22.00;7.60;;;;;;;2.08;92.72;99680.45;102990;1306;22479;-59
2022/12/08 04:37:07;;;;;;;19.70;8.30;;;;;;;2.08;92.74;99683.73;103046;1306;22489;-56
2022/12/08 04:39:38;;;;;;;21.30;7.50;;;;;;;2.09;92.98;99682.63;103130;1288;22481;-59
2022/12/08 04:42:10;;;;;;;18.60;7.10;;;;;;;2.12;93.01;99680.67;102949;1276;24321;-58
2022/12/08 04:44:45;;;;;;;25.00;7.70;;;;;;;2.14;93.05;99679.34;102985;1306;22655;-59
2022/12/08 04:47:16;;;;;;;28.70;8.90;;;;;;;2.16;93.17;99675.67;102851;1311;25419;-55
2022/12/08 04:49:47;;;;;;;21.30;8.00;;;;;;;2.15;93.11;99671.92;102864;1307;22510;-58
2022/12/08 04:52:19;;;;;;;22.40;8.40;;;;;;;2.13;93.04;99669.61;102896;1309;25173;-59
2022/12/08 04:54:50;;;;;;;29.70;9.40;;;;;;;2.12;92.98;99667.45;102839;1308;22492;-59
2022/12/08 04:57:23;;;;;;;21.90;7.90;;;;;;;2.12;93.03;99667.60;102772;1298;24321;-59
2022/12/08 04:59:55;;;;;;;22.00;8.90;;;;;;;2.11;92.94;99667.48;102839;1307;22458;-59
2022/12/08 05:02:27;;;;;;;16.50;7.00;;;;;;;2.11;92.97;99665.17;103418;1283;22469;-59
2022/12/08 05:05:00;;;;;;;18.00;7.50;;;;;;;2.11;92.90;99665.34;102898;1280;24578;-59
2022/12/08 05:07:31;;;;;;;20.40;8.40;;;;;;;2.09;92.82;99665.16;102936;1286;22485;-60
2022/12/08 05:10:03;;;;;;;18.90;7.40;;;;;;;2.07;92.84;99656.80;102918;1288;24311;-58
2022/12/08 05:12:35;;;;;;;22.80;9.40;;;;;;;2.07;92.85;99654.92;102804;1285;22612;-61
2022/12/08 05:15:08;;;;;;;22.70;9.30;;;;;;;2.06;92.75;99651.89;102891;1288;22461;-58
2022/12/08 05:17:40;;;;;;;23.60;9.70;;;;;;;2.05;92.72;99653.40;102900;1306;22498;-58
2022/12/08 05:20:13;;;;;;;25.60;9.30;;;;;;;2.04;92.80;99654.83;102914;1306;24277;-58
2022/12/08 05:22:44;;;;;;;18.40;7.30;;;;;;;2.04;92.72;99655.70;102869;1282;22488;-58
2022/12/08 05:25:16;;;;;;;22.40;8.90;;;;;;;2.03;92.80;99661.40;102756;1306;25222;-60
2022/12/08 05:27:50;;;;;;;20.60;8.20;;;;;;;2.00;92.70;99658.95;103124;1302;24401;-59
2022/12/08 05:30:23;;;;;;;21.40;8.80;;;;;;;2.00;92.77;99656.77;102852;1283;22783;-59
2022/12/08 05:32:54;;;;;;;22.60;9.10;;;;;;;2.00;92.79;99657.63;103157;1307;22486;-60
2022/12/08 05:35:26;;;;;;;25.90;9.40;;;;;;;1.97;92.66;99651.98;102819;1288;22475;-59
2022/12/08 05:37:57;;;;;;;20.20;8.10;;;;;;;1.96;92.75;99653.80;102820;1277;22465;-58
2022/12/08 05:40:28;;;;;;;27.10;9.70;;;;;;;1.95;92.76;99654.08;102827;1285;23712;-59
2022/12/08 05:42:59;;;;;;;26.00;9.90;;;;;;;1.93;92.65;99654.52;103159;1306;22571;-61
2022/12/08 05:45:31;;;;;;;31.00;10.10;;;;;;;1.92;92.64;99653.05;102757;1306;26553;-61
2022/12/08 05:48:03;;;;;;;22.80;8.40;;;;;;;1.90;92.56;99650.59;102856;1305;23101;-59
2022/12/08 05:50:35;;;;;;;22.90;10.00;;;;;;;1.87;92.45;99650.99;102828;1307;25476;-59
2022/12/08 05:53:07;;;;;;;23.60;9.90;;;;;;;1.82;92.54;99649.71;102821;1304;22638;-58
2022/12/08 05:55:38;;;;;;;27.90;10.80;;;;;;;1.81;92.59;99649.66;104169;1306;22479;-58
2022/12/08 05:58:15;;;;;;;25.10;10.00;;;;;;;1.79;92.53;99651.84;102829;1299;26648;-61
2022/12/08 06:00:48;;;;;;;27.00;10.50;;;;;;;1.77;92.58;99656.45;102842;1306;22853;-56
2022/12/08 06:03:20;;;;;;;26.20;9.00;;;;;;;1.72;92.47;99657.52;102857;1281;22469;-56
2022/12/08 06:05:51;;;;;;;24.40;9.60;;;;;;;1.70;92.70;99650.59;102814;1285;22471;-59
2022/12/08 06:08:23;;;;;;;22.20;8.90;;;;;;;1.70;92.74;99648.09;102901;1306;22461;-55
2022/12/08 06:10:55;;;;;;;24.40;10.10;;;;;;;1.69;92.78;99648.56;102847;1283;25523;-60
2022/12/08 06:13:27;;;;;;;28.80;11.90;;;;;;;1.69;92.85;99651.33;102892;1281;24428;-60
2022/12/08 06:16:06;;;;;;;37.20;13.50;;;;;;;1.68;92.83;99651.58;102979;1281;22504;-59
2022/12/08 06:18:37;;;;;;;34.00;13.10;;;;;;;1.68;92.87;99655.38;102856;1285;22473;-60
2022/12/08 06:21:10;;;;;;;27.30;10.90;;;;;;;1.66;92.95;99655.88;103264;1292;24264;-61
2022/12/08 06:23:42;;;;;;;26.40;10.50;;;;;;;1.65;92.97;99651.27;102785;1286;22478;-61
2022/12/08 06:26:15;;;;;;;28.50;11.50;;;;;;;1.64;92.95;99652.30;102798;1284;22529;-62
2022/12/08 06:28:46;;;;;;;28.80;11.30;;;;;;;1.63;92.99;99652.47;102863;1286;24266;-60
2022/12/08 06:31:20;;;;;;;28.40;10.90;;;;;;;1.63;92.99;99648.71;102905;1288;24377;-61
2022/12/08 06:33:52;;;;;;;29.80;10.60;;;;;;;1.64;93.12;99646.88;102942;1285;25370;-63
2022/12/08 06:36:25;;;;;;;28.00;9.30;;;;;;;1.66;93.19;99642.44;102895;1280;22465;-60
2022/12/08 06:38:58;;;;;;;29.90;12.00;;;;;;;1.68;93.21;99644.05;102903;1306;24565;-60
2022/12/08 06:41:30;;;;;;;27.60;11.40;;;;;;;1.69;93.18;99648.19;103086;1280;24852;-61
2022/12/08 06:44:02;;;;;;;28.40;10.90;;;;;;;1.68;93.19;99644.98;103218;1280;24314;-62
2022/12/08 06:46:33;;;;;;;30.10;11.70;;;;;;;1.68;93.15;99653.23;103155;1306;25366;-63
2022/12/08 06:49:05;;;;;;;26.80;10.20;;;;;;;1.68;93.23;99655.92;102837;1286;24418;-60
2022/12/08 06:51:37;;;;;;;28.80;12.30;;;;;;;1.68;93.16;99655.04;103011;1302;22487;-61
2022/12/08 06:54:08;;;;;;;24.70;10.80;;;;;;;1.69;93.14;99651.39;102787;1306;24267;-61
2022/12/08 06:56:39;;;;;;;26.30;10.40;;;;;;;1.68;93.09;99648.52;103121;1306;24293;-61
2022/12/08 06:59:12;;;;;;;29.40;12.20;;;;;;;1.65;93.13;99649.45;102894;1284;22478;-61
2022/12/08 07:01:43;;;;;;;24.80;10.80;;;;;;;1.64;93.27;99654.88;102938;1277;24309;-60
2022/12/08 07:04:15;;;;;;;26.60;11.00;;;;;;;1.65;93.20;99655.02;102944;1285;23886;-62
2022/12/08 07:06:46;;;;;;;30.50;11.60;;;;;;;1.66;93.12;99656.98;103080;1304;25407;-61
2022/12/08 07:09:18;;;;;;;29.10;11.30;;;;;;;1.67;93.20;99654.83;102865;1285;24345;-62
2022/12/08 07:11:50;;;;;;;28.20;12.60;;;;;;;1.68;93.21;99656.70;102885;1306;22499;-61
2022/12/08 07:14:24;;;;;;;27.10;12.20;;;;;;;1.69;93.30;99655.48;102908;1281;22470;-61
2022/12/08 07:16:55;;;;;;;30.70;11.20;;;;;;;1.70;93.29;99654.60;102887;1285;22482;-63
2022/12/08 07:19:26;;;;;;;27.60;11.60;;;;;;;1.69;93.20;99652.58;102857;1285;24337;-61
2022/12/08 07:21:58;;;;;;;28.20;12.30;;;;;;;1.70;93.32;99651.92;102839;1285;26680;-61
2022/12/08 07:24:29;;;;;;;31.40;13.00;;;;;;;1.69;93.32;99652.48;103049;1306;22477;-61
2022/12/08 07:27:00;;;;;;;29.50;12.80;;;;;;;1.72;93.40;99651.89;102836;1306;25300;-61
2022/12/08 07:29:31;;;;;;;30.70;12.70;;;;;;;1.73;93.45;99653.65;103156;1301;22525;-60
2022/12/08 07:32:04;;;;;;;27.00;11.00;;;;;;;1.74;93.56;99653.61;102913;1306;24465;-62
2022/12/08 07:34:35;;;;;;;24.20;10.30;;;;;;;1.76;93.44;99650.67;102922;1281;24324;-62
2022/12/08 07:37:06;;;;;;;26.90;10.40;;;;;;;1.76;93.51;99654.49;102926;1285;22552;-62
2022/12/08 07:39:38;;;;;;;28.30;10.80;;;;;;;1.78;93.54;99650.36;104116;1306;23079;-61
2022/12/08 07:42:09;;;;;;;28.70;12.10;;;;;;;1.80;93.52;99654.34;102760;1285;23173;-61
2022/12/08 07:44:41;;;;;;;30.90;12.20;;;;;;;1.81;93.60;99656.96;104412;1306;22486;-63
2022/12/08 07:47:12;;;;;;;25.20;10.50;;;;;;;1.85;93.72;99655.53;102912;1292;23073;-61
2022/12/08 07:49:45;;;;;;;27.10;11.50;;;;;;;1.87;93.74;99659.55;102887;1283;22553;-61
2022/12/08 07:52:17;;;;;;;26.90;10.40;;;;;;;1.90;93.73;99657.52;102940;1306;22468;-63
2022/12/08 07:54:48;;;;;;;26.60;10.50;;;;;;;1.93;93.78;99655.06;102824;1278;22528;-62
2022/12/08 07:57:20;;;;;;;25.20;10.50;;;;;;;1.95;93.67;99656.19;102952;1281;22673;-62
2022/12/08 07:59:51;;;;;;;25.10;9.90;;;;;;;1.98;93.67;99655.95;102894;1306;24073;-61
2022/12/08 08:02:22;;;;;;;24.90;9.30;;;;;;;2.00;93.70;99660.30;102897;1280;24337;-61
2022/12/08 08:04:54;;;;;;;24.80;10.40;;;;;;;2.03;93.71;99657.95;102940;1285;25273;-60
2022/12/08 08:07:26;;;;;;;24.10;9.00;;;;;;;2.06;93.78;99662.20;102904;1280;25366;-61
2022/12/08 08:09:57;;;;;;;27.40;11.90;;;;;;;2.10;93.87;99663.94;102826;1284;22610;-60
2022/12/08 08:12:29;;;;;;;30.10;11.80;;;;;;;2.15;93.91;99666.73;102932;1306;23143;-61
2022/12/08 08:15:01;;;;;;;29.80;12.40;;;;;;;2.18;93.90;99666.40;102874;1306;26101;-63
2022/12/08 08:17:33;;;;;;;31.30;12.70;;;;;;;2.22;93.98;99669.27;102989;1294;22492;-61
2022/12/08 08:20:06;;;;;;;28.10;12.70;;;;;;;2.26;94.01;99667.84;103063;1306;25305;-61
2022/12/08 08:22:38;;;;;;;31.40;13.80;;;;;;;2.30;93.95;99668.51;103115;1306;22524;-61
2022/12/08 08:25:11;;;;;;;32.30;14.50;;;;;;;2.33;94.03;99666.04;102858;1283;23003;-61
2022/12/08 08:27:42;;;;;;;35.10;14.10;;;;;;;2.37;93.92;99664.61;102931;1306;23363;-61
2022/12/08 08:30:15;;;;;;;31.50;15.30;;;;;;;2.40;94.03;99665.77;102828;1299;25355;-61
2022/12/08 08:32:47;;;;;;;32.90;13.70;;;;;;;2.45;94.08;99664.92;103321;1306;22606;-61
2022/12/08 08:35:19;;;;;;;30.90;14.50;;;;;;;2.49;93.91;99664.79;102858;1285;22592;-61
2022/12/08 08:37:51;;;;;;;32.30;14.70;;;;;;;2.53;93.80;99662.66;102802;1283;22761;-63
2022/12/08 08:40:38;;;;;;;36.90;17.20;;;;;;;2.56;93.98;99669.02;102956;1299;25266;-61
2022/12/08 08:43:27;;;;;;;34.50;15.00;;;;;;;2.60;93.84;99665.35;102816;1301;22464;-61
2022/12/08 08:46:01;;;;;;;31.10;13.10;;;;;;;2.65;93.65;99664.82;102872;1285;22470;-63
2022/12/08 08:48:33;;;;;;;28.30;12.70;;;;;;;2.68;93.70;99667.46;102876;1301;26025;-59
2022/12/08 08:51:10;;;;;;;29.20;12.30;;;;;;;2.73;93.55;99661.09;103207;1306;23027;-61
2022/12/08 08:53:42;;;;;;;26.70;11.80;;;;;;;2.78;93.67;99666.52;102978;1291;22539;-60
2022/12/08 08:56:15;;;;;;;25.10;9.60;;;;;;;2.82;93.44;99667.35;102882;1280;25710;-61
2022/12/08 08:58:47;;;;;;;23.80;8.30;;;;;;;2.86;93.42;99666.67;103010;1283;22472;-60
2022/12/08 09:01:19;;;;;;;19.80;7.80;;;;;;;2.92;93.44;99666.11;102890;1277;25370;-60
2022/12/08 09:03:51;;;;;;;19.80;6.60;;;;;;;2.95;93.14;99661.20;102824;1306;25409;-61
2022/12/08 09:06:23;;;;;;;19.90;7.00;;;;;;;2.99;93.08;99656.67;102836;1278;22469;-60
2022/12/08 09:08:55;;;;;;;17.40;7.20;;;;;;;3.04;93.12;99650.67;102967;1306;22540;-61
2022/12/08 09:11:26;;;;;;;16.80;5.90;;;;;;;3.08;93.04;99649.04;103206;1292;22490;-61
2022/12/08 09:13:57;;;;;;;18.10;6.00;;;;;;;3.13;92.86;99648.56;102840;1285;22501;-63
2022/12/08 09:16:29;;;;;;;22.60;7.80;;;;;;;3.17;92.82;99643.63;102845;1284;22467;-62
2022/12/08 09:19:01;;;;;;;17.40;5.80;;;;;;;3.21;92.82;99646.73;102868;1281;22486;-62
2022/12/08 09:21:32;;;;;;;16.60;6.10;;;;;;;3.25;92.48;99645.73;102861;1281;25476;-62
2022/12/08 09:24:03;;;;;;;18.00;6.60;;;;;;;3.30;92.57;99643.38;102924;1306;25391;-61
2022/12/08 09:26:35;;;;;;;18.30;6.50;;;;;;;3.33;92.54;99642.16;102825;1295;22480;-61
2022/12/08 09:29:07;;;;;;;16.50;6.00;;;;;;;3.39;92.66;99639.98;102881;1298;25418;-61
2022/12/08 09:31:38;;;;;;;16.90;6.50;;;;;;;3.45;92.59;99636.58;102906;1301;24347;-60
2022/12/08 09:34:10;;;;;;;15.50;4.80;;;;;;;3.49;92.41;99634.23;102858;1281;22514;-61
2022/12/08 09:36:42;;;;;;;17.10;5.90;;;;;;;3.53;92.20;99630.07;102883;1306;22469;-61
2022/12/08 09:39:16;;;;;;;15.50;4.70;;;;;;;3.57;91.97;99630.80;102972;1283;22882;-61
2022/12/08 09:41:51;;;;;;;15.90;4.80;;;;;;;3.61;91.77;99629.85;102977;1306;25429;-61
2022/12/08 09:44:47;;;;;;;17.30;5.40;;;;;;;3.65;91.51;99626.70;102937;1285;22509;-60
2022/12/08 09:47:23;;;;;;;15.00;4.70;;;;;;;3.72;91.60;99626.10;102949;1306;25385;-62
2022/12/08 09:50:01;;;;;;;15.70;5.20;;;;;;;3.77;91.62;99623.86;102874;1306;22578;-60
2022/12/08 09:52:38;;;;;;;14.90;5.50;;;;;;;3.81;91.32;99621.51;102779;1306;22466;-59
2022/12/08 09:55:20;;;;;;;17.30;5.50;;;;;;;3.85;91.07;99620.27;102931;1306;22602;-62
2022/12/08 09:58:02;;;;;;;16.50;4.20;;;;;;;3.87;90.45;99618.15;102863;1292;22472;-62
2022/12/08 10:00:35;;;;;;;15.30;4.90;;;;;;;3.88;90.43;99615.67;102974;1298;22496;-61
2022/12/08 10:03:07;;;;;;;14.60;4.00;;;;;;;3.90;90.41;99614.58;103004;1285;22554;-62
2022/12/08 10:05:41;;;;;;;16.30;5.00;;;;;;;3.91;90.17;99616.91;102922;1306;25398;-62
2022/12/08 10:08:24;;;;;;;15.60;6.10;;;;;;;3.92;90.47;99613.67;102979;1306;24161;-62
2022/12/08 10:10:59;;;;;;;17.10;6.60;;;;;;;3.97;90.56;99613.36;102876;1306;24347;-63
2022/12/08 10:13:38;;;;;;;17.60;5.80;;;;;;;4.02;90.69;99609.23;102921;1277;22498;-62
2022/12/08 10:16:21;;;;;;;14.30;5.00;;;;;;;4.07;90.54;99604.14;102962;1306;22483;-63
2022/12/08 10:19:01;;;;;;;12.50;3.90;;;;;;;4.13;90.24;99605.63;102892;1283;25276;-61
2022/12/08 10:21:33;;;;;;;14.00;4.70;;;;;;;4.15;90.02;99604.83;102881;1285;25230;-62
2022/12/08 10:24:13;;;;;;;14.60;4.50;;;;;;;4.18;90.22;99604.32;102922;1306;24253;-61
2022/12/08 10:26:46;;;;;;;14.10;4.60;;;;;;;4.22;90.06;99604.98;102986;1306;22507;-62
2022/12/08 10:29:17;;;;;;;13.90;5.20;;;;;;;4.25;89.97;99601.31;102893;1301;23064;-62
2022/12/08 10:31:49;;;;;;;15.70;5.20;;;;;;;4.27;89.96;99600.95;102877;1306;22489;-60
2022/12/08 10:34:23;;;;;;;14.20;4.70;;;;;;;4.33;89.76;99593.90;102799;1278;22484;-59
2022/12/08 10:37:00;;;;;;;14.00;5.20;;;;;;;4.36;89.59;99591.33;102837;1306;25780;-59
2022/12/08 10:39:37;;;;;;;16.70;5.20;;;;;;;4.40;89.60;99589.98;102940;1306;22480;-61
2022/12/08 10:42:22;;;;;;;15.70;5.60;;;;;;;4.44;89.58;99589.97;102963;1299;26513;-61
2022/12/08 10:45:03;;;;;;;18.20;5.00;;;;;;;4.47;89.21;99583.68;102882;1306;24306;-61
2022/12/08 10:47:38;;;;;;;16.70;5.80;;;;;;;4.47;88.71;99585.04;103069;1290;25302;-60
2022/12/08 10:50:19;;;;;;;15.70;5.00;;;;;;;4.48;89.16;99583.20;102929;1281;22483;-60
2022/12/08 10:52:54;;;;;;;;;;;;;;;4.49;89.02;99582.94;102905;1291;25259;-61
2022/12/08 10:55:26;;;;;;;16.10;5.90;;;;;;;4.47;88.90;99579.11;103107;1283;25311;-61
2022/12/08 10:57:58;;;;;;;15.10;5.10;;;;;;;4.46;88.72;99583.11;102956;1278;25482;-59
2022/12/08 11:00:29;;;;;;;18.70;6.20;;;;;;;4.45;88.29;99577.57;102805;1300;22469;-61
2022/12/08 11:03:03;;;;;;;15.50;5.60;;;;;;;4.43;88.43;99578.11;102795;1306;22585;-61
2022/12/08 11:05:36;;;;;;;15.60;6.10;;;;;;;4.43;88.56;99579.21;102820;1306;22472;-60
2022/12/08 11:08:11;;;;;;;16.90;5.90;;;;;;;4.44;88.78;99577.50;102848;1284;22561;-60
2022/12/08 11:10:46;;;;;;;17.10;5.80;;;;;;;4.45;88.66;99576.18;102870;1285;25407;-59
2022/12/08 11:13:23;;;;;;;17.20;6.00;;;;;;;4.47;88.69;99576.60;102803;1306;22956;-60
2022/12/08 11:15:56;;;;;;;18.80;5.60;;;;;;;4.50;88.59;99575.88;102807;1278;25573;-62
2022/12/08 11:18:38;;;;;;;16.30;5.60;;;;;;;4.52;88.35;99571.76;103055;1280;25225;-60
2022/12/08 11:21:17;;;;;;;16.00;4.80;;;;;;;4.53;87.81;99571.55;102841;1283;24366;-60
2022/12/08 11:23:51;;;;;;;16.20;6.20;;;;;;;4.54;87.90;99572.85;102933;1283;25243;-58
2022/12/08 11:26:30;;;;;;;16.50;4.90;;;;;;;4.56;87.91;99571.66;102931;1285;22488;-59
2022/12/08 11:29:01;;;;;;;16.70;5.40;;;;;;;4.58;87.81;99570.01;102905;1285;24321;-61
2022/12/08 11:31:40;;;;;;;14.20;4.60;;;;;;;4.59;87.58;99566.77;102970;1306;22492;-61
2022/12/08 11:34:20;;;;;;;15.80;5.00;;;;;;;4.59;87.33;99564.61;103003;1306;24350;-60
2022/12/08 11:36:54;;;;;;;16.60;6.00;;;;;;;4.60;87.36;99565.34;102826;1306;25400;-59
2022/12/08 11:39:30;;;;;;;17.30;5.40;;;;;;;4.61;87.38;99566.34;103154;1291;24347;-61
2022/12/08 11:42:04;;;;;;;18.20;6.80;;;;;;;4.62;87.39;99561.39;102966;1306;22603;-60
2022/12/08 11:44:42;;;;;;;21.30;6.00;;;;;;;4.64;87.52;99561.24;103029;1293;26577;-60
2022/12/08 11:47:20;;;;;;;17.60;5.50;;;;;;;4.65;87.21;99561.28;102889;1285;23089;-62
2022/12/08 11:49:58;;;;;;;18.00;6.10;;;;;;;4.67;87.28;99558.98;102840;1277;23207;-62
2022/12/08 11:52:40;;;;;;;16.10;4.80;;;;;;;4.68;87.17;99557.66;102847;1285;25441;-61
2022/12/08 11:55:28;;;;;;;17.30;6.20;;;;;;;4.69;87.10;99555.98;102789;1306;22870;-60
2022/12/08 11:58:12;;;;;;;20.50;5.90;;;;;;;4.69;86.60;99552.33;102883;1304;22482;-62
2022/12/08 12:00:43;;;;;;;15.40;5.00;;;;;;;4.69;86.46;99551.46;102892;1284;24441;-61
2022/12/08 12:03:27;;;;;;;16.90;4.60;;;;;;;4.70;86.26;99551.73;102810;1283;22473;-60